createdAt,value
2019-03-21T00:01:07.050Z,20.00
2019-03-21T00:03:37.342Z,17.77
2019-03-21T00:06:08.954Z,17.13
2019-03-21T00:08:39.326Z,19.97
2019-03-21T00:11:44.856Z,15.30
2019-03-21T00:14:38.143Z,17.87
2019-03-21T00:17:08.422Z,21.23
2019-03-21T00:19:39.935Z,15.93
2019-03-21T00:22:10.232Z,15.47
2019-03-21T00:24:40.582Z,24.27
2019-03-21T00:27:10.834Z,16.23
2019-03-21T00:29:41.082Z,25.00
2019-03-21T00:32:11.320Z,18.30
2019-03-21T00:34:42.452Z,16.13
2019-03-21T00:37:13.023Z,18.70
2019-03-21T00:39:43.245Z,18.80
2019-03-21T00:42:13.601Z,21.40
2019-03-21T00:44:43.930Z,18.37
2019-03-21T00:47:14.182Z,20.87
2019-03-21T00:49:44.430Z,23.33
2019-03-21T00:52:14.653Z,24.67
2019-03-21T00:54:44.898Z,30.10
2019-03-21T00:57:15.156Z,22.83
2019-03-21T00:59:45.402Z,28.37
2019-03-21T01:02:15.695Z,28.53
2019-03-21T01:04:45.959Z,30.47
2019-03-21T01:07:17.210Z,31.20
2019-03-21T01:09:47.847Z,31.47
2019-03-21T01:12:18.075Z,20.03
2019-03-21T01:14:48.310Z,31.10
2019-03-21T01:17:18.534Z,30.57
2019-03-21T01:19:48.798Z,27.43
2019-03-21T01:22:19.027Z,33.10
2019-03-21T01:24:50.878Z,24.83
2019-03-21T01:27:21.095Z,24.67
2019-03-21T01:29:51.330Z,31.30
2019-03-21T01:32:22.646Z,28.53
2019-03-21T01:34:52.891Z,28.57
2019-03-21T01:37:23.586Z,26.73
2019-03-21T01:39:53.866Z,21.60
2019-03-21T01:42:24.164Z,19.13
2019-03-21T01:44:54.447Z,25.67
2019-03-21T01:47:24.691Z,23.37
2019-03-21T01:49:54.927Z,21.67
2019-03-21T01:52:25.168Z,22.03
2019-03-21T01:54:55.507Z,18.90
2019-03-21T01:57:25.794Z,19.23
2019-03-21T01:59:57.082Z,20.33
2019-03-21T02:02:29.094Z,26.40
2019-03-21T02:04:59.314Z,13.70
2019-03-21T02:07:29.566Z,15.67
2019-03-21T02:09:59.878Z,19.77
2019-03-21T02:12:30.141Z,15.00
2019-03-21T02:15:00.374Z,16.97
2019-03-21T02:17:30.639Z,16.37
2019-03-21T02:20:00.862Z,14.63
2019-03-21T02:22:31.190Z,16.63
2019-03-21T02:25:01.714Z,13.47
2019-03-21T02:27:31.950Z,14.97
2019-03-21T02:30:02.266Z,14.33
2019-03-21T02:32:32.496Z,12.73
2019-03-21T02:35:02.814Z,14.43
2019-03-21T02:37:33.843Z,19.07
2019-03-21T02:40:04.483Z,14.10
2019-03-21T02:42:34.710Z,16.97
2019-03-21T02:45:09.059Z,17.70
2019-03-21T02:47:37.414Z,18.77
2019-03-21T02:50:10.279Z,21.20
2019-03-21T02:52:40.558Z,20.07
2019-03-21T02:55:11.103Z,20.63
2019-03-21T02:57:41.387Z,19.77
2019-03-21T03:00:15.061Z,23.10
2019-03-21T03:02:45.475Z,16.87
2019-03-21T03:05:18.574Z,15.40
2019-03-21T03:07:48.889Z,15.30
2019-03-21T03:10:22.302Z,17.17
2019-03-21T03:12:52.622Z,17.53
2019-03-21T03:15:23.794Z,16.90
2019-03-21T03:17:54.157Z,20.07
2019-03-21T03:20:24.451Z,20.27
2019-03-21T03:22:54.679Z,19.13
2019-03-21T03:25:24.907Z,20.87
2019-03-21T03:27:56.847Z,19.93
2019-03-21T03:30:27.273Z,23.00
2019-03-21T03:32:57.713Z,23.60
2019-03-21T03:35:27.919Z,20.77
2019-03-21T03:37:58.732Z,20.13
2019-03-21T03:40:34.009Z,25.47
2019-03-21T03:43:05.628Z,20.70
2019-03-21T03:45:38.096Z,17.30
2019-03-21T03:48:08.044Z,18.23
2019-03-21T03:50:38.353Z,17.73
2019-03-21T03:53:08.594Z,17.40
2019-03-21T03:55:40.720Z,17.93
2019-03-21T03:58:19.122Z,17.90
2019-03-21T04:00:49.530Z,22.33
2019-03-21T04:03:19.915Z,19.60
2019-03-21T04:05:51.502Z,27.27
2019-03-21T04:08:21.878Z,18.83
2019-03-21T04:10:52.564Z,24.63
2019-03-21T04:13:22.998Z,18.83
2019-03-21T04:15:54.054Z,26.50
2019-03-21T04:18:24.630Z,23.03
2019-03-21T04:20:55.487Z,33.10
2019-03-21T04:23:25.734Z,29.57
2019-03-21T04:26:06.037Z,33.90
2019-03-21T04:28:36.270Z,38.50
2019-03-21T04:31:06.585Z,39.80
2019-03-21T04:33:36.821Z,40.73
2019-03-21T04:36:07.048Z,50.53
2019-03-21T04:38:37.263Z,46.03
2019-03-21T04:41:07.472Z,43.03
2019-03-21T04:43:37.726Z,35.33
2019-03-21T04:46:09.421Z,39.67
2019-03-21T04:48:39.738Z,39.87
2019-03-21T04:51:09.963Z,43.33
2019-03-21T04:53:40.280Z,38.17
2019-03-21T04:56:10.490Z,43.83
2019-03-21T04:58:40.737Z,47.80
2019-03-21T05:01:10.954Z,40.70
2019-03-21T05:03:41.357Z,53.20
2019-03-21T05:06:11.765Z,47.73
2019-03-21T05:08:42.082Z,53.23
2019-03-21T05:11:12.406Z,49.07
2019-03-21T05:13:42.698Z,51.90
2019-03-21T05:16:14.971Z,46.40
2019-03-21T05:18:45.666Z,51.60
2019-03-21T05:21:17.075Z,54.47
2019-03-21T05:23:47.346Z,55.33
2019-03-21T05:26:17.578Z,53.37
2019-03-21T05:28:47.967Z,46.60
2019-03-21T05:31:21.891Z,48.33
2019-03-21T05:33:52.195Z,40.90
2019-03-21T05:36:22.514Z,47.40
2019-03-21T05:38:52.823Z,46.00
2019-03-21T05:41:23.028Z,46.63
2019-03-21T05:43:56.805Z,55.43
2019-03-21T05:46:27.374Z,45.90
2019-03-21T05:48:57.741Z,40.70
2019-03-21T05:51:27.978Z,36.97
2019-03-21T05:53:58.209Z,49.50
2019-03-21T05:56:28.804Z,41.43
2019-03-21T05:58:59.127Z,40.47
2019-03-21T06:01:29.770Z,45.93
2019-03-21T06:04:00.002Z,40.53
2019-03-21T06:06:58.206Z,34.50
2019-03-21T06:09:28.451Z,38.13
2019-03-21T06:11:59.467Z,44.37
2019-03-21T06:14:30.028Z,36.67
2019-03-21T06:17:00.246Z,42.37
2019-03-21T06:19:37.615Z,46.40
2019-03-21T06:22:51.961Z,40.93
2019-03-21T06:25:53.622Z,49.07
2019-03-21T06:28:23.869Z,42.43
2019-03-21T06:30:54.166Z,48.60
2019-03-21T06:33:24.423Z,47.10
2019-03-21T06:35:54.642Z,61.87
2019-03-21T06:38:24.885Z,53.00
2019-03-21T06:40:55.170Z,51.33
2019-03-21T06:43:25.410Z,54.87
2019-03-21T06:45:55.709Z,56.47
2019-03-21T06:48:26.014Z,50.00
2019-03-21T06:50:56.306Z,58.27
2019-03-21T06:53:26.531Z,52.67
2019-03-21T06:55:57.142Z,53.23
2019-03-21T06:58:27.382Z,55.57
2019-03-21T07:00:57.598Z,50.63
2019-03-21T07:03:27.829Z,62.13
2019-03-21T07:05:58.098Z,53.40
2019-03-21T07:08:28.390Z,53.47
2019-03-21T07:10:58.702Z,45.90
2019-03-21T07:13:29.018Z,51.30
2019-03-21T07:15:59.242Z,57.57
2019-03-21T07:18:29.494Z,49.00
2019-03-21T07:21:01.084Z,48.07
2019-03-21T07:23:31.642Z,45.00
2019-03-21T07:26:01.933Z,43.40
2019-03-21T07:28:32.191Z,38.43
2019-03-21T07:31:02.694Z,38.10
2019-03-21T07:33:32.938Z,47.23
2019-03-21T07:36:03.244Z,36.83
2019-03-21T07:38:34.710Z,43.00
2019-03-21T07:41:05.607Z,46.07
2019-03-21T07:43:35.950Z,43.97
2019-03-21T07:46:06.242Z,50.50
2019-03-21T07:48:39.454Z,47.17
2019-03-21T07:51:09.759Z,52.03
2019-03-21T07:53:40.086Z,50.87
2019-03-21T07:56:10.391Z,50.57
2019-03-21T07:58:40.639Z,38.90
2019-03-21T08:01:10.962Z,38.70
2019-03-21T08:03:41.201Z,36.10
2019-03-21T08:06:11.434Z,36.17
2019-03-21T08:08:41.674Z,34.87
2019-03-21T08:11:11.928Z,29.63
2019-03-21T08:13:42.199Z,17.23
2019-03-21T08:16:12.427Z,11.57
2019-03-21T08:18:42.957Z,12.20
2019-03-21T08:21:13.494Z,13.10
2019-03-21T08:23:43.806Z,12.97
2019-03-21T08:26:14.033Z,11.93
2019-03-21T08:28:44.243Z,16.97
2019-03-21T08:31:16.058Z,20.33
2019-03-21T08:33:46.830Z,16.00
2019-03-21T08:36:17.534Z,13.07
2019-03-21T08:38:47.909Z,9.50
2019-03-21T08:41:18.146Z,11.23
2019-03-21T08:43:48.453Z,12.60
2019-03-21T08:46:18.684Z,11.13
2019-03-21T08:48:48.915Z,9.80
2019-03-21T08:51:19.115Z,7.27
2019-03-21T08:53:49.354Z,8.77
2019-03-21T08:56:19.659Z,5.60
2019-03-21T08:58:50.054Z,4.00
2019-03-21T09:01:20.350Z,6.33
2019-03-21T09:03:50.578Z,3.77
2019-03-21T09:06:21.784Z,6.50
2019-03-21T09:08:52.130Z,6.33
2019-03-21T09:11:22.344Z,9.03
2019-03-21T09:13:52.582Z,10.23
2019-03-21T09:16:22.882Z,8.03
2019-03-21T09:18:53.110Z,10.13
2019-03-21T09:21:23.402Z,7.33
2019-03-21T09:23:53.630Z,5.33
2019-03-21T09:26:23.881Z,4.70
2019-03-21T09:28:54.110Z,10.57
2019-03-21T09:31:24.332Z,5.07
2019-03-21T09:33:54.564Z,4.80
2019-03-21T09:36:24.882Z,6.63
2019-03-21T09:38:55.164Z,5.80
2019-03-21T09:41:25.383Z,4.27
2019-03-21T09:43:55.702Z,5.20
2019-03-21T09:46:25.936Z,4.60
2019-03-21T09:48:56.446Z,7.07
2019-03-21T09:51:30.940Z,6.03
2019-03-21T09:54:09.210Z,4.50
2019-03-21T09:56:30.490Z,5.97
2019-03-21T09:59:03.183Z,5.53
2019-03-21T10:01:33.429Z,12.67
2019-03-21T10:04:03.871Z,4.20
2019-03-21T10:06:34.085Z,6.30
2019-03-21T10:09:06.527Z,4.77
2019-03-21T10:11:36.866Z,4.50
2019-03-21T10:14:07.202Z,5.17
2019-03-21T10:16:38.701Z,4.27
2019-03-21T10:19:08.970Z,6.63
2019-03-21T10:21:43.679Z,3.13
2019-03-21T10:24:11.962Z,4.23
2019-03-21T10:26:42.260Z,4.10
2019-03-21T10:29:12.477Z,4.30
2019-03-21T10:31:42.712Z,3.23
2019-03-21T10:34:12.947Z,3.83
2019-03-21T10:36:43.162Z,3.53
2019-03-21T10:39:13.390Z,2.47
2019-03-21T10:41:43.672Z,3.00
2019-03-21T10:44:13.894Z,2.97
2019-03-21T10:46:44.112Z,3.30
2019-03-21T10:49:14.411Z,4.27
2019-03-21T10:51:54.371Z,3.80
2019-03-21T10:54:16.725Z,2.90
2019-03-21T10:56:48.300Z,5.03
2019-03-21T10:59:18.790Z,3.13
2019-03-21T11:01:49.128Z,3.83
2019-03-21T11:04:19.347Z,3.80
2019-03-21T11:06:52.051Z,3.53
2019-03-21T11:09:22.278Z,3.50
2019-03-21T11:11:52.497Z,4.60
2019-03-21T11:14:25.875Z,2.63
2019-03-21T11:16:56.241Z,3.13
2019-03-21T11:19:30.207Z,2.27
2019-03-21T11:22:06.255Z,3.00
2019-03-21T11:24:32.579Z,2.33
2019-03-21T11:27:02.797Z,3.77
2019-03-21T11:29:33.035Z,3.17
2019-03-21T11:32:04.602Z,3.80
2019-03-21T11:34:34.818Z,4.70
2019-03-21T11:37:05.457Z,3.57
2019-03-21T11:39:35.691Z,3.57
2019-03-21T11:42:05.998Z,1.93
2019-03-21T11:44:36.234Z,3.27
2019-03-21T11:47:06.630Z,3.17
2019-03-21T11:49:38.633Z,3.67
2019-03-21T11:52:17.761Z,6.30
2019-03-21T11:54:41.088Z,6.33
2019-03-21T11:57:16.978Z,7.60
2019-03-21T11:59:51.844Z,6.17
2019-03-21T12:02:27.080Z,7.13
2019-03-21T12:04:51.014Z,4.87
2019-03-21T12:07:21.286Z,3.53
2019-03-21T12:09:51.505Z,4.03
2019-03-21T12:12:21.752Z,5.93
2019-03-21T12:14:52.055Z,7.87
2019-03-21T12:17:22.279Z,7.37
2019-03-21T12:19:52.505Z,9.10
2019-03-21T12:22:29.970Z,4.70
2019-03-21T12:24:55.079Z,6.03
2019-03-21T12:27:25.471Z,4.97
2019-03-21T12:29:55.848Z,6.27
2019-03-21T12:32:26.074Z,3.77
2019-03-21T12:34:56.383Z,4.37
2019-03-21T12:37:26.654Z,4.80
2019-03-21T12:39:56.881Z,5.30
2019-03-21T12:42:27.122Z,7.07
2019-03-21T12:44:57.670Z,7.83
2019-03-21T12:47:31.573Z,4.03
2019-03-21T12:49:59.982Z,5.67
2019-03-21T12:52:40.758Z,4.53
2019-03-21T12:55:02.411Z,3.57
2019-03-21T12:57:32.646Z,2.77
2019-03-21T13:00:02.943Z,5.60
2019-03-21T13:02:34.558Z,5.70
2019-03-21T13:05:06.524Z,2.53
2019-03-21T13:07:36.782Z,2.67
2019-03-21T13:10:07.530Z,1.77
2019-03-21T13:12:37.882Z,5.60
2019-03-21T13:15:08.211Z,3.70
2019-03-21T13:17:38.554Z,2.63
2019-03-21T13:20:08.974Z,4.40
2019-03-21T13:22:39.310Z,2.60
2019-03-21T13:25:09.805Z,3.90
2019-03-21T13:27:40.046Z,4.20
2019-03-21T13:30:10.507Z,2.27
2019-03-21T13:32:43.238Z,2.13
2019-03-21T13:35:14.995Z,3.97
2019-03-21T13:37:45.419Z,3.60
2019-03-21T13:40:15.826Z,5.37
2019-03-21T13:42:46.070Z,4.03
2019-03-21T13:45:16.544Z,5.33
2019-03-21T13:47:46.863Z,5.87
2019-03-21T13:50:17.152Z,5.07
2019-03-21T13:52:48.361Z,5.00
2019-03-21T13:55:18.722Z,4.77
2019-03-21T13:57:49.018Z,10.10
2019-03-21T14:00:20.882Z,4.37
2019-03-21T14:02:51.590Z,6.70
2019-03-21T14:05:21.893Z,3.93
2019-03-21T14:07:52.110Z,3.83
2019-03-21T14:10:22.467Z,5.53
2019-03-21T14:12:52.718Z,8.53
2019-03-21T14:15:23.138Z,7.17
2019-03-21T14:17:53.391Z,9.90
2019-03-21T14:20:23.991Z,5.53
2019-03-21T14:22:54.222Z,6.37
2019-03-21T14:25:24.566Z,13.37
2019-03-21T14:27:54.797Z,6.53
2019-03-21T14:30:25.130Z,8.63
2019-03-21T14:32:55.371Z,5.30
2019-03-21T14:35:25.726Z,6.13
2019-03-21T14:37:55.967Z,5.93
2019-03-21T14:40:26.347Z,5.57
2019-03-21T14:42:56.593Z,5.17
2019-03-21T14:45:26.828Z,6.43
2019-03-21T14:47:57.050Z,3.30
2019-03-21T14:50:27.338Z,4.90
2019-03-21T14:52:57.551Z,5.73
2019-03-21T14:55:27.801Z,3.37
2019-03-21T14:57:58.026Z,4.37
2019-03-21T15:00:28.330Z,4.93
2019-03-21T15:02:58.526Z,3.83
2019-03-21T15:05:28.814Z,7.13
2019-03-21T15:07:59.039Z,5.50
2019-03-21T15:10:29.276Z,4.33
2019-03-21T15:12:59.478Z,5.33
2019-03-21T15:15:32.173Z,4.80
2019-03-21T15:18:01.741Z,8.20
2019-03-21T15:20:32.011Z,3.53
2019-03-21T15:23:04.415Z,6.13
2019-03-21T15:25:34.689Z,6.30
2019-03-21T15:28:05.058Z,4.90
2019-03-21T15:30:35.691Z,6.60
2019-03-21T15:33:06.007Z,6.87
2019-03-21T15:35:36.698Z,6.87
2019-03-21T15:38:06.930Z,5.70
2019-03-21T15:40:37.306Z,5.20
2019-03-21T15:43:07.599Z,3.33
2019-03-21T15:45:37.891Z,5.33
2019-03-21T15:48:08.130Z,6.57
2019-03-21T15:50:38.613Z,5.07
2019-03-21T15:53:09.191Z,6.23
2019-03-21T15:55:39.542Z,3.80
2019-03-21T15:58:09.783Z,3.77
2019-03-21T16:00:41.147Z,7.40
2019-03-21T16:03:13.741Z,9.40
2019-03-21T16:05:44.030Z,6.53
2019-03-21T16:08:14.534Z,7.63
2019-03-21T16:10:44.737Z,8.27
2019-03-21T16:13:14.990Z,8.83
2019-03-21T16:15:46.295Z,6.13
2019-03-21T16:18:16.518Z,4.67
2019-03-21T16:20:46.736Z,3.93
2019-03-21T16:23:19.466Z,3.17
2019-03-21T16:25:49.683Z,7.47
2019-03-21T16:28:20.372Z,13.33
2019-03-21T16:30:50.966Z,7.20
2019-03-21T16:33:21.257Z,9.40
2019-03-21T16:35:51.591Z,12.30
2019-03-21T16:38:21.807Z,11.47
2019-03-21T16:40:52.074Z,11.60
2019-03-21T16:43:22.282Z,12.37
2019-03-21T16:45:52.536Z,10.87
2019-03-21T16:48:22.765Z,14.63
2019-03-21T16:50:55.758Z,14.90
2019-03-21T16:53:26.392Z,14.67
2019-03-21T16:55:56.606Z,14.43
2019-03-21T16:58:28.506Z,15.77
2019-03-21T17:00:58.925Z,14.73
2019-03-21T17:03:29.266Z,17.93
2019-03-21T17:05:59.559Z,15.40
2019-03-21T17:08:30.805Z,13.73
2019-03-21T17:11:01.059Z,11.33
2019-03-21T17:13:31.338Z,20.33
2019-03-21T17:16:01.654Z,20.13
2019-03-21T17:18:31.908Z,13.47
2019-03-21T17:21:02.145Z,14.87
2019-03-21T17:23:32.742Z,13.23
2019-03-21T17:26:03.122Z,18.43
2019-03-21T17:28:34.005Z,18.53
2019-03-21T17:31:04.250Z,18.07
2019-03-21T17:33:34.882Z,17.83
2019-03-21T17:36:05.470Z,19.23
2019-03-21T17:38:35.702Z,20.27
2019-03-21T17:41:06.416Z,16.37
2019-03-21T17:43:37.029Z,16.80
2019-03-21T17:46:07.362Z,17.20
2019-03-21T17:48:37.604Z,21.50
2019-03-21T17:51:07.910Z,16.77
2019-03-21T17:53:39.104Z,20.47
2019-03-21T17:56:09.430Z,22.13
2019-03-21T17:58:39.750Z,22.33
2019-03-21T18:01:10.139Z,23.43
2019-03-21T18:03:40.479Z,36.57
2019-03-21T18:06:11.228Z,22.33
2019-03-21T18:08:41.494Z,24.57
2019-03-21T18:11:12.291Z,26.60
2019-03-21T18:13:42.546Z,23.27
2019-03-21T18:16:12.872Z,27.53
2019-03-21T18:18:44.687Z,31.23
2019-03-21T18:21:14.986Z,25.20
2019-03-21T18:23:45.708Z,24.50
2019-03-21T18:26:15.999Z,27.20
2019-03-21T18:28:46.376Z,21.70
2019-03-21T18:31:16.743Z,25.30
2019-03-21T18:33:46.962Z,17.40
2019-03-21T18:36:17.339Z,21.67
2019-03-21T18:38:58.662Z,23.17
2019-03-21T18:41:20.674Z,21.23
2019-03-21T18:43:50.914Z,19.40
2019-03-21T18:46:21.218Z,21.07
2019-03-21T18:48:51.818Z,19.40
2019-03-21T18:51:23.173Z,19.40
2019-03-21T18:53:53.478Z,24.37
2019-03-21T18:56:23.801Z,20.50
2019-03-21T18:58:54.037Z,24.57
2019-03-21T19:01:24.358Z,20.37
2019-03-21T19:03:55.793Z,22.43
2019-03-21T19:06:27.915Z,23.87
2019-03-21T19:08:58.199Z,25.27
2019-03-21T19:11:30.511Z,23.57
2019-03-21T19:14:00.774Z,23.23
2019-03-21T19:16:32.127Z,22.93
2019-03-21T19:19:02.470Z,25.03
2019-03-21T19:21:32.777Z,24.43
2019-03-21T19:24:03.082Z,22.70
2019-03-21T19:26:33.305Z,22.67
2019-03-21T19:29:03.547Z,23.77
2019-03-21T19:31:33.873Z,25.60
2019-03-21T19:34:04.430Z,23.87
2019-03-21T19:36:34.826Z,26.73
2019-03-21T19:39:08.317Z,29.70
2019-03-21T19:41:38.945Z,23.43
2019-03-21T19:44:09.260Z,20.90
2019-03-21T19:46:39.574Z,25.93
2019-03-21T19:49:09.800Z,33.27
2019-03-21T19:51:41.549Z,25.93
2019-03-21T19:54:11.766Z,27.30
2019-03-21T19:56:42.018Z,27.20
2019-03-21T19:59:12.234Z,23.73
2019-03-21T20:01:42.540Z,23.70
2019-03-21T20:04:12.759Z,22.53
2019-03-21T20:06:43.046Z,27.67
2019-03-21T20:09:13.358Z,31.13
2019-03-21T20:11:43.589Z,26.97
2019-03-21T20:14:13.814Z,26.87
2019-03-21T20:16:44.113Z,23.50
2019-03-21T20:19:14.381Z,33.60
2019-03-21T20:21:47.988Z,27.43
2019-03-21T20:24:16.915Z,25.47
2019-03-21T20:26:47.232Z,29.23
2019-03-21T20:29:17.470Z,32.73
2019-03-21T20:31:47.770Z,27.10
2019-03-21T20:34:18.003Z,29.90
2019-03-21T20:36:48.243Z,29.53
2019-03-21T20:39:18.582Z,31.83
2019-03-21T20:41:54.727Z,35.30
2019-03-21T20:44:24.946Z,31.10
2019-03-21T20:46:57.137Z,27.83
2019-03-21T20:49:27.359Z,33.93
2019-03-21T20:51:57.622Z,30.10
2019-03-21T20:54:27.954Z,39.07
2019-03-21T20:56:58.253Z,34.33
2019-03-21T20:59:28.552Z,34.13
2019-03-21T21:02:02.975Z,41.87
2019-03-21T21:04:30.927Z,31.37
2019-03-21T21:07:01.252Z,33.67
2019-03-21T21:09:31.643Z,33.03
2019-03-21T21:12:02.111Z,29.60
2019-03-21T21:14:32.467Z,34.23
2019-03-21T21:17:02.855Z,33.83
2019-03-21T21:19:33.154Z,32.63
2019-03-21T21:22:03.552Z,41.37
2019-03-21T21:24:33.831Z,27.33
2019-03-21T21:27:04.431Z,26.93
2019-03-21T21:29:34.807Z,29.00
2019-03-21T21:32:05.205Z,25.97
2019-03-21T21:34:35.464Z,23.97
2019-03-21T21:37:05.916Z,23.07
2019-03-21T21:39:36.224Z,23.10
2019-03-21T21:42:06.913Z,22.70
2019-03-21T21:44:38.135Z,26.57
2019-03-21T21:47:08.497Z,23.07
2019-03-21T21:49:38.830Z,24.83
2019-03-21T21:52:09.134Z,29.30
2019-03-21T21:54:39.375Z,28.60
2019-03-21T21:57:09.578Z,27.67
2019-03-21T21:59:40.878Z,34.83
2019-03-21T22:02:11.166Z,32.07
2019-03-21T22:04:41.423Z,35.07
2019-03-21T22:07:11.715Z,38.43
2019-03-21T22:09:42.055Z,39.13
2019-03-21T22:12:14.644Z,39.63
2019-03-21T22:14:45.003Z,33.97
2019-03-21T22:17:15.226Z,32.30
2019-03-21T22:19:45.480Z,30.53
2019-03-21T22:22:15.705Z,35.77
2019-03-21T22:24:45.920Z,43.63
2019-03-21T22:27:16.138Z,40.90
2019-03-21T22:29:47.453Z,38.83
2019-03-21T22:32:17.741Z,43.47
2019-03-21T22:34:47.998Z,38.30
2019-03-21T22:37:18.245Z,41.07
2019-03-21T22:39:49.028Z,35.83
2019-03-21T22:42:19.252Z,41.00
2019-03-21T22:44:49.710Z,43.30
2019-03-21T22:47:20.034Z,36.80
2019-03-21T22:49:50.618Z,42.10
2019-03-21T22:52:20.839Z,42.60
2019-03-21T22:54:51.142Z,38.57
2019-03-21T22:57:21.444Z,45.27
2019-03-21T22:59:52.127Z,39.67
2019-03-21T23:02:22.440Z,36.00
2019-03-21T23:04:52.742Z,28.50
2019-03-21T23:07:23.157Z,35.17
2019-03-21T23:09:53.396Z,35.53
2019-03-21T23:12:23.650Z,41.23
2019-03-21T23:14:53.898Z,39.73
2019-03-21T23:17:24.123Z,37.87
2019-03-21T23:19:54.420Z,39.30
2019-03-21T23:22:24.732Z,39.27
2019-03-21T23:24:56.035Z,46.83
2019-03-21T23:27:26.258Z,45.70
2019-03-21T23:29:56.489Z,46.80
2019-03-21T23:32:26.712Z,45.50
2019-03-21T23:34:56.930Z,50.63
2019-03-21T23:37:27.219Z,45.10
2019-03-21T23:39:57.454Z,45.30
2019-03-21T23:42:27.827Z,39.23
2019-03-21T23:44:58.065Z,44.63
2019-03-21T23:47:28.372Z,42.17
2019-03-21T23:49:59.830Z,36.47
2019-03-21T23:52:30.062Z,35.83
2019-03-21T23:55:00.422Z,37.23
2019-03-21T23:57:30.703Z,38.70
